sensor_id;sensor_type;location;lat;lon;timestamp;pressure;altitude;pressure_sealevel;temperature;humidity
38718;BME280;24468;52.128;9.278;2022-08-01T00:01:24;100498.53;;;21.23;100.00
38718;BME280;24468;52.128;9.278;2022-08-01T00:03:49;100492.69;;;21.06;100.00
38718;BME280;24468;52.128;9.278;2022-08-01T00:06:15;100498.28;;;21.36;100.00
38718;BME280;24468;52.128;9.278;2022-08-01T00:08:40;100497.59;;;21.13;100.00
38718;BME280;24468;52.128;9.278;2022-08-01T00:11:06;100499.13;;;20.96;100.00
38718;BME280;24468;52.128;9.278;2022-08-01T00:13:31;100502.84;;;20.95;100.00
38718;BME280;24468;52.128;9.278;2022-08-01T00:15:57;100506.41;;;20.85;100.00
38718;BME280;24468;52.128;9.278;2022-08-01T00:18:22;100500.06;;;20.85;100.00
38718;BME280;24468;52.128;9.278;2022-08-01T00:20:48;100505.81;;;20.61;100.00
38718;BME280;24468;52.128;9.278;2022-08-01T00:23:13;100500.81;;;20.66;100.00
38718;BME280;24468;52.128;9.278;2022-08-01T00:25:39;100506.94;;;20.58;100.00
38718;BME280;24468;52.128;9.278;2022-08-01T00:28:04;100498.81;;;20.68;100.00
38718;BME280;24468;52.128;9.278;2022-08-01T00:30:34;100508.91;;;20.35;100.00
38718;BME280;24468;52.128;9.278;2022-08-01T00:33:00;100512.47;;;20.15;100.00
38718;BME280;24468;52.128;9.278;2022-08-01T00:35:26;100507.53;;;20.41;100.00
38718;BME280;24468;52.128;9.278;2022-08-01T00:37:52;100499.66;;;20.15;100.00
38718;BME280;24468;52.128;9.278;2022-08-01T00:40:17;100507.69;;;20.28;100.00
38718;BME280;24468;52.128;9.278;2022-08-01T00:42:43;100512.63;;;19.70;100.00
38718;BME280;24468;52.128;9.278;2022-08-01T00:45:09;100515.09;;;19.62;100.00
38718;BME280;24468;52.128;9.278;2022-08-01T00:47:35;100511.72;;;19.81;100.00
38718;BME280;24468;52.128;9.278;2022-08-01T00:50:06;100515.22;;;19.49;100.00
38718;BME280;24468;52.128;9.278;2022-08-01T00:52:33;100508.25;;;19.79;100.00
38718;BME280;24468;52.128;9.278;2022-08-01T00:54:58;100509.47;;;19.63;100.00
38718;BME280;24468;52.128;9.278;2022-08-01T00:57:24;100522.53;;;19.82;100.00
38718;BME280;24468;52.128;9.278;2022-08-01T00:59:52;100521.56;;;19.49;100.00
38718;BME280;24468;52.128;9.278;2022-08-01T01:02:18;100515.84;;;19.75;100.00
38718;BME280;24468;52.128;9.278;2022-08-01T01:04:44;100518.72;;;19.73;100.00
38718;BME280;24468;52.128;9.278;2022-08-01T01:07:18;100515.59;;;19.55;100.00
38718;BME280;24468;52.128;9.278;2022-08-01T01:10:12;100512.88;;;19.55;100.00
38718;BME280;24468;52.128;9.278;2022-08-01T01:12:51;100513.59;;;19.58;100.00
38718;BME280;24468;52.128;9.278;2022-08-01T01:15:50;100512.97;;;19.54;100.00
38718;BME280;24468;52.128;9.278;2022-08-01T01:18:25;100513.75;;;19.56;100.00
38718;BME280;24468;52.128;9.278;2022-08-01T01:24:39;100517.59;;;19.53;100.00
38718;BME280;24468;52.128;9.278;2022-08-01T01:28:15;100510.88;;;19.46;100.00
38718;BME280;24468;52.128;9.278;2022-08-01T01:30:38;100519.47;;;19.42;100.00
38718;BME280;24468;52.128;9.278;2022-08-01T01:33:08;100526.66;;;19.54;100.00
38718;BME280;24468;52.128;9.278;2022-08-01T01:35:41;100519.97;;;19.69;100.00
38718;BME280;24468;52.128;9.278;2022-08-01T01:38:13;100527.53;;;19.43;100.00
38718;BME280;24468;52.128;9.278;2022-08-01T01:40:39;100522.06;;;19.43;100.00
38718;BME280;24468;52.128;9.278;2022-08-01T01:43:10;100525.06;;;19.51;100.00
38718;BME280;24468;52.128;9.278;2022-08-01T01:45:37;100520.47;;;19.41;100.00
38718;BME280;24468;52.128;9.278;2022-08-01T01:48:05;100527.81;;;19.40;100.00
38718;BME280;24468;52.128;9.278;2022-08-01T01:50:32;100522.47;;;19.50;100.00
38718;BME280;24468;52.128;9.278;2022-08-01T01:52:58;100526.06;;;19.39;100.00
38718;BME280;24468;52.128;9.278;2022-08-01T01:55:25;100522.28;;;19.63;100.00
38718;BME280;24468;52.128;9.278;2022-08-01T01:57:52;100524.31;;;19.49;100.00
38718;BME280;24468;52.128;9.278;2022-08-01T02:00:19;100522.81;;;19.45;100.00
38718;BME280;24468;52.128;9.278;2022-08-01T02:02:45;100521.94;;;19.56;100.00
38718;BME280;24468;52.128;9.278;2022-08-01T02:05:12;100533.25;;;19.51;100.00
38718;BME280;24468;52.128;9.278;2022-08-01T02:07:39;100528.28;;;19.57;100.00
38718;BME280;24468;52.128;9.278;2022-08-01T02:10:06;100534.28;;;19.28;100.00
38718;BME280;24468;52.128;9.278;2022-08-01T02:12:37;100525.56;;;19.45;100.00
38718;BME280;24468;52.128;9.278;2022-08-01T02:15:05;100524.78;;;19.54;100.00
38718;BME280;24468;52.128;9.278;2022-08-01T02:17:31;100527.03;;;19.61;100.00
38718;BME280;24468;52.128;9.278;2022-08-01T02:19:58;100531.75;;;19.36;100.00
38718;BME280;24468;52.128;9.278;2022-08-01T02:22:42;100540.63;;;19.40;100.00
38718;BME280;24468;52.128;9.278;2022-08-01T02:25:26;100528.56;;;19.31;100.00
38718;BME280;24468;52.128;9.278;2022-08-01T02:28:07;100533.28;;;19.29;100.00
38718;BME280;24468;52.128;9.278;2022-08-01T02:30:36;100534.50;;;19.36;100.00
38718;BME280;24468;52.128;9.278;2022-08-01T02:33:16;100543.22;;;19.30;100.00
38718;BME280;24468;52.128;9.278;2022-08-01T02:35:47;100540.63;;;19.28;100.00
38718;BME280;24468;52.128;9.278;2022-08-01T02:38:17;100533.53;;;19.37;100.00
38718;BME280;24468;52.128;9.278;2022-08-01T02:40:46;100542.09;;;19.32;100.00
38718;BME280;24468;52.128;9.278;2022-08-01T02:43:17;100535.75;;;19.21;100.00
38718;BME280;24468;52.128;9.278;2022-08-01T02:45:48;100533.78;;;19.34;100.00
38718;BME280;24468;52.128;9.278;2022-08-01T02:48:17;100549.19;;;19.24;100.00
38718;BME280;24468;52.128;9.278;2022-08-01T02:50:48;100542.97;;;19.33;100.00
38718;BME280;24468;52.128;9.278;2022-08-01T02:53:16;100539.97;;;19.14;100.00
38718;BME280;24468;52.128;9.278;2022-08-01T02:55:43;100540.63;;;19.17;100.00
38718;BME280;24468;52.128;9.278;2022-08-01T02:58:15;100538.59;;;19.08;100.00
38718;BME280;24468;52.128;9.278;2022-08-01T03:00:43;100543.22;;;19.07;100.00
38718;BME280;24468;52.128;9.278;2022-08-01T03:03:10;100550.41;;;18.97;100.00
38718;BME280;24468;52.128;9.278;2022-08-01T03:05:37;100539.84;;;19.04;100.00
38718;BME280;24468;52.128;9.278;2022-08-01T03:08:07;100540.09;;;19.01;100.00
38718;BME280;24468;52.128;9.278;2022-08-01T03:10:37;100539.47;;;18.97;100.00
38718;BME280;24468;52.128;9.278;2022-08-01T03:13:05;100548.31;;;19.01;100.00
38718;BME280;24468;52.128;9.278;2022-08-01T03:15:35;100544.47;;;19.03;100.00
38718;BME280;24468;52.128;9.278;2022-08-01T03:18:03;100550.41;;;18.97;100.00
38718;BME280;24468;52.128;9.278;2022-08-01T03:20:32;100550.66;;;19.05;100.00
38718;BME280;24468;52.128;9.278;2022-08-01T03:23:03;100555.41;;;19.26;100.00
38718;BME280;24468;52.128;9.278;2022-08-01T03:25:30;100553.03;;;19.10;100.00
38718;BME280;24468;52.128;9.278;2022-08-01T03:27:59;100563.94;;;18.87;100.00
38718;BME280;24468;52.128;9.278;2022-08-01T03:30:27;100558.13;;;19.03;100.00
38718;BME280;24468;52.128;9.278;2022-08-01T03:32:53;100565.44;;;19.14;100.00
38718;BME280;24468;52.128;9.278;2022-08-01T03:35:20;100567.06;;;19.17;100.00
38718;BME280;24468;52.128;9.278;2022-08-01T03:37:51;100564.59;;;19.25;100.00
38718;BME280;24468;52.128;9.278;2022-08-01T03:40:25;100564.38;;;19.28;100.00
38718;BME280;24468;52.128;9.278;2022-08-01T03:43:07;100562.72;;;19.14;100.00
38718;BME280;24468;52.128;9.278;2022-08-01T03:45:41;100569.66;;;18.84;100.00
38718;BME280;24468;52.128;9.278;2022-08-01T03:48:16;100569.53;;;18.97;100.00
38718;BME280;24468;52.128;9.278;2022-08-01T03:50:46;100571.41;;;18.97;100.00
38718;BME280;24468;52.128;9.278;2022-08-01T03:53:14;100571.28;;;18.98;100.00
38718;BME280;24468;52.128;9.278;2022-08-01T03:55:42;100573.50;;;18.93;100.00
38718;BME280;24468;52.128;9.278;2022-08-01T03:58:09;100584.94;;;18.87;100.00
38718;BME280;24468;52.128;9.278;2022-08-01T04:00:37;100587.28;;;18.92;100.00
38718;BME280;24468;52.128;9.278;2022-08-01T04:03:10;100584.13;;;18.74;100.00
38718;BME280;24468;52.128;9.278;2022-08-01T04:05:37;100584.47;;;19.04;100.00
38718;BME280;24468;52.128;9.278;2022-08-01T04:08:05;100584.44;;;18.93;100.00
38718;BME280;24468;52.128;9.278;2022-08-01T04:10:31;100585.56;;;18.91;100.00
38718;BME280;24468;52.128;9.278;2022-08-01T04:12:56;100591.28;;;18.99;100.00
38718;BME280;24468;52.128;9.278;2022-08-01T04:15:22;100586.66;;;18.77;100.00
38718;BME280;24468;52.128;9.278;2022-08-01T04:17:49;100595.13;;;18.85;100.00
38718;BME280;24468;52.128;9.278;2022-08-01T04:20:14;100593.41;;;18.95;100.00
38718;BME280;24468;52.128;9.278;2022-08-01T04:22:41;100593.88;;;18.89;100.00
38718;BME280;24468;52.128;9.278;2022-08-01T04:25:16;100598.72;;;18.61;100.00
38718;BME280;24468;52.128;9.278;2022-08-01T04:27:47;100593.78;;;18.66;100.00
38718;BME280;24468;52.128;9.278;2022-08-01T04:30:16;100606.19;;;18.59;100.00
38718;BME280;24468;52.128;9.278;2022-08-01T04:32:43;100608.69;;;18.62;100.00
38718;BME280;24468;52.128;9.278;2022-08-01T04:35:13;100603.69;;;18.67;100.00
38718;BME280;24468;52.128;9.278;2022-08-01T04:37:44;100610.16;;;18.66;100.00
38718;BME280;24468;52.128;9.278;2022-08-01T04:40:11;100614.34;;;18.83;100.00
38718;BME280;24468;52.128;9.278;2022-08-01T04:42:37;100608.31;;;18.67;100.00
38718;BME280;24468;52.128;9.278;2022-08-01T04:45:04;100614.44;;;18.71;100.00
38718;BME280;24468;52.128;9.278;2022-08-01T04:47:30;100618.56;;;18.76;100.00
38718;BME280;24468;52.128;9.278;2022-08-01T04:49:56;100611.25;;;18.77;100.00
38718;BME280;24468;52.128;9.278;2022-08-01T04:52:22;100614.25;;;18.85;100.00
38718;BME280;24468;52.128;9.278;2022-08-01T04:54:47;100615.28;;;18.95;100.00
38718;BME280;24468;52.128;9.278;2022-08-01T04:57:13;100615.03;;;18.98;100.00
38718;BME280;24468;52.128;9.278;2022-08-01T04:59:42;100620.16;;;19.14;100.00
38718;BME280;24468;52.128;9.278;2022-08-01T05:02:16;100625.78;;;19.24;100.00
38718;BME280;24468;52.128;9.278;2022-08-01T05:04:44;100626.28;;;19.40;100.00
38718;BME280;24468;52.128;9.278;2022-08-01T05:07:11;100633.03;;;19.47;100.00
38718;BME280;24468;52.128;9.278;2022-08-01T05:09:39;100633.13;;;19.57;100.00
38718;BME280;24468;52.128;9.278;2022-08-01T05:12:07;100635.25;;;19.53;100.00
38718;BME280;24468;52.128;9.278;2022-08-01T05:14:33;100631.91;;;19.50;100.00
38718;BME280;24468;52.128;9.278;2022-08-01T05:17:00;100635.00;;;19.45;100.00
38718;BME280;24468;52.128;9.278;2022-08-01T05:19:32;100634.66;;;19.50;100.00
38718;BME280;24468;52.128;9.278;2022-08-01T05:21:59;100635.63;;;19.60;100.00
38718;BME280;24468;52.128;9.278;2022-08-01T05:24:27;100634.06;;;19.91;100.00
38718;BME280;24468;52.128;9.278;2022-08-01T05:26:54;100646.44;;;19.39;100.00
38718;BME280;24468;52.128;9.278;2022-08-01T05:29:20;100633.91;;;19.59;100.00
38718;BME280;24468;52.128;9.278;2022-08-01T05:31:46;100635.50;;;19.62;100.00
38718;BME280;24468;52.128;9.278;2022-08-01T05:34:11;100630.75;;;19.52;100.00
38718;BME280;24468;52.128;9.278;2022-08-01T05:36:37;100630.28;;;19.59;100.00
38718;BME280;24468;52.128;9.278;2022-08-01T05:39:03;100627.06;;;19.65;100.00
38718;BME280;24468;52.128;9.278;2022-08-01T05:41:29;100634.25;;;19.54;100.00
38718;BME280;24468;52.128;9.278;2022-08-01T05:43:55;100634.78;;;19.71;100.00
38718;BME280;24468;52.128;9.278;2022-08-01T05:46:21;100641.38;;;19.68;100.00
38718;BME280;24468;52.128;9.278;2022-08-01T05:48:46;100633.41;;;19.76;100.00
38718;BME280;24468;52.128;9.278;2022-08-01T05:51:12;100645.22;;;19.66;100.00
38718;BME280;24468;52.128;9.278;2022-08-01T05:53:37;100646.56;;;19.49;100.00
38718;BME280;24468;52.128;9.278;2022-08-01T05:56:03;100647.97;;;19.66;100.00
38718;BME280;24468;52.128;9.278;2022-08-01T05:58:29;100645.94;;;19.45;100.00
38718;BME280;24468;52.128;9.278;2022-08-01T06:00:54;100656.13;;;19.32;100.00
38718;BME280;24468;52.128;9.278;2022-08-01T06:03:20;100664.75;;;19.50;100.00
38718;BME280;24468;52.128;9.278;2022-08-01T06:05:46;100662.91;;;19.73;100.00
38718;BME280;24468;52.128;9.278;2022-08-01T06:08:11;100658.88;;;19.54;100.00
38718;BME280;24468;52.128;9.278;2022-08-01T06:10:37;100666.16;;;19.67;100.00
38718;BME280;24468;52.128;9.278;2022-08-01T06:13:03;100676.34;;;19.98;100.00
38718;BME280;24468;52.128;9.278;2022-08-01T06:15:32;100671.13;;;19.95;100.00
38718;BME280;24468;52.128;9.278;2022-08-01T06:17:58;100675.75;;;19.72;100.00
38718;BME280;24468;52.128;9.278;2022-08-01T06:20:24;100669.16;;;19.86;100.00
38718;BME280;24468;52.128;9.278;2022-08-01T06:22:49;100669.16;;;19.86;100.00
38718;BME280;24468;52.128;9.278;2022-08-01T06:25:17;100669.72;;;20.24;100.00
38718;BME280;24468;52.128;9.278;2022-08-01T06:27:43;100664.22;;;20.24;100.00
38718;BME280;24468;52.128;9.278;2022-08-01T06:30:10;100668.78;;;20.02;100.00
38718;BME280;24468;52.128;9.278;2022-08-01T06:32:36;100669.06;;;20.42;100.00
38718;BME280;24468;52.128;9.278;2022-08-01T06:35:01;100678.50;;;20.61;100.00
38718;BME280;24468;52.128;9.278;2022-08-01T06:37:31;100666.47;;;20.84;100.00
38718;BME280;24468;52.128;9.278;2022-08-01T06:40:09;100673.81;;;20.84;100.00
38718;BME280;24468;52.128;9.278;2022-08-01T06:42:35;100669.94;;;20.54;100.00
38718;BME280;24468;52.128;9.278;2022-08-01T06:45:11;100678.63;;;20.71;100.00
38718;BME280;24468;52.128;9.278;2022-08-01T06:47:42;100687.66;;;20.16;100.00
38718;BME280;24468;52.128;9.278;2022-08-01T06:50:09;100684.78;;;20.18;100.00
38718;BME280;24468;52.128;9.278;2022-08-01T06:52:35;100687.94;;;20.02;100.00
38718;BME280;24468;52.128;9.278;2022-08-01T06:55:02;100678.81;;;20.02;100.00
38718;BME280;24468;52.128;9.278;2022-08-01T06:57:28;100681.94;;;20.08;100.00
38718;BME280;24468;52.128;9.278;2022-08-01T06:59:55;100675.75;;;20.61;100.00
38718;BME280;24468;52.128;9.278;2022-08-01T07:02:21;100682.19;;;20.82;100.00
38718;BME280;24468;52.128;9.278;2022-08-01T07:04:47;100684.50;;;20.43;100.00
38718;BME280;24468;52.128;9.278;2022-08-01T07:07:13;100680.00;;;20.54;100.00
38718;BME280;24468;52.128;9.278;2022-08-01T07:09:38;100678.31;;;21.06;100.00
38718;BME280;24468;52.128;9.278;2022-08-01T07:12:07;100680.72;;;20.67;100.00
38718;BME280;24468;52.128;9.278;2022-08-01T07:14:32;100685.97;;;20.48;100.00
38718;BME280;24468;52.128;9.278;2022-08-01T07:16:58;100692.50;;;20.13;100.00
38718;BME280;24468;52.128;9.278;2022-08-01T07:19:23;100702.06;;;18.80;100.00
38718;BME280;24468;52.128;9.278;2022-08-01T07:21:49;100708.31;;;18.70;100.00
38718;BME280;24468;52.128;9.278;2022-08-01T07:24:15;100725.84;;;18.30;100.00
38718;BME280;24468;52.128;9.278;2022-08-01T07:26:42;100717.88;;;18.27;100.00
38718;BME280;24468;52.128;9.278;2022-08-01T07:29:08;100726.69;;;17.94;100.00
38718;BME280;24468;52.128;9.278;2022-08-01T07:31:34;100718.50;;;18.31;100.00
38718;BME280;24468;52.128;9.278;2022-08-01T07:33:59;100724.03;;;18.42;100.00
38718;BME280;24468;52.128;9.278;2022-08-01T07:36:25;100727.41;;;18.45;100.00
38718;BME280;24468;52.128;9.278;2022-08-01T07:38:50;100725.03;;;18.41;100.00
38718;BME280;24468;52.128;9.278;2022-08-01T07:41:16;100719.75;;;18.27;100.00
38718;BME280;24468;52.128;9.278;2022-08-01T07:43:42;100724.28;;;18.76;100.00
38718;BME280;24468;52.128;9.278;2022-08-01T07:46:07;100727.84;;;18.52;100.00
38718;BME280;24468;52.128;9.278;2022-08-01T07:48:33;100727.56;;;18.68;100.00
38718;BME280;24468;52.128;9.278;2022-08-01T07:50:59;100729.81;;;19.22;100.00
38718;BME280;24468;52.128;9.278;2022-08-01T07:53:25;100738.19;;;19.32;100.00
38718;BME280;24468;52.128;9.278;2022-08-01T07:55:50;100736.38;;;19.55;100.00
38718;BME280;24468;52.128;9.278;2022-08-01T07:58:16;100736.09;;;19.82;100.00
38718;BME280;24468;52.128;9.278;2022-08-01T08:00:43;100740.69;;;19.93;100.00
38718;BME280;24468;52.128;9.278;2022-08-01T08:03:08;100736.34;;;20.02;100.00
38718;BME280;24468;52.128;9.278;2022-08-01T08:05:34;100737.06;;;20.26;100.00
38718;BME280;24468;52.128;9.278;2022-08-01T08:08:05;100735.06;;;20.51;100.00
38718;BME280;24468;52.128;9.278;2022-08-01T08:10:31;100744.81;;;20.10;100.00
38718;BME280;24468;52.128;9.278;2022-08-01T08:12:56;100749.06;;;20.14;100.00
38718;BME280;24468;52.128;9.278;2022-08-01T08:15:22;100750.78;;;20.49;100.00
38718;BME280;24468;52.128;9.278;2022-08-01T08:17:47;100755.53;;;20.35;100.00
38718;BME280;24468;52.128;9.278;2022-08-01T08:20:13;100745.56;;;20.23;100.00
38718;BME280;24468;52.128;9.278;2022-08-01T08:22:39;100756.50;;;20.01;100.00
38718;BME280;24468;52.128;9.278;2022-08-01T08:25:06;100740.72;;;20.27;100.00
38718;BME280;24468;52.128;9.278;2022-08-01T08:27:32;100745.28;;;20.26;100.00
38718;BME280;24468;52.128;9.278;2022-08-01T08:29:57;100744.69;;;20.34;100.00
38718;BME280;24468;52.128;9.278;2022-08-01T08:32:23;100754.38;;;20.49;100.00
38718;BME280;24468;52.128;9.278;2022-08-01T08:34:49;100751.66;;;20.49;100.00
38718;BME280;24468;52.128;9.278;2022-08-01T08:37:14;100754.25;;;20.39;100.00
38718;BME280;24468;52.128;9.278;2022-08-01T08:39:40;100747.91;;;20.39;100.00
38718;BME280;24468;52.128;9.278;2022-08-01T08:42:08;100760.13;;;20.69;100.00
38718;BME280;24468;52.128;9.278;2022-08-01T08:44:33;100759.78;;;20.94;100.00
38718;BME280;24468;52.128;9.278;2022-08-01T08:47:02;100759.94;;;20.81;100.00
38718;BME280;24468;52.128;9.278;2022-08-01T08:49:30;100763.28;;;21.28;100.00
38718;BME280;24468;52.128;9.278;2022-08-01T08:52:00;100767.47;;;21.00;100.00
38718;BME280;24468;52.128;9.278;2022-08-01T08:54:27;100760.00;;;21.02;100.00
38718;BME280;24468;52.128;9.278;2022-08-01T08:56:55;100766.97;;;20.63;100.00
38718;BME280;24468;52.128;9.278;2022-08-01T08:59:22;100766.00;;;20.96;100.00
38718;BME280;24468;52.128;9.278;2022-08-01T09:01:49;100766.09;;;21.06;100.00
38718;BME280;24468;52.128;9.278;2022-08-01T09:04:15;100767.81;;;20.75;100.00
38718;BME280;24468;52.128;9.278;2022-08-01T09:06:41;100781.16;;;20.46;100.00
38718;BME280;24468;52.128;9.278;2022-08-01T09:09:09;100776.16;;;20.73;100.00
38718;BME280;24468;52.128;9.278;2022-08-01T09:11:36;100775.41;;;20.82;100.00
38718;BME280;24468;52.128;9.278;2022-08-01T09:16:41;100777.31;;;21.46;100.00
38718;BME280;24468;52.128;9.278;2022-08-01T09:21:37;100784.50;;;22.10;100.00
38718;BME280;24468;52.128;9.278;2022-08-01T09:24:04;100789.09;;;21.58;100.00
38718;BME280;24468;52.128;9.278;2022-08-01T09:26:38;100790.78;;;21.06;100.00
38718;BME280;24468;52.128;9.278;2022-08-01T09:29:06;100794.75;;;21.13;100.00
38718;BME280;24468;52.128;9.278;2022-08-01T09:31:43;100800.19;;;20.81;100.00
38718;BME280;24468;52.128;9.278;2022-08-01T09:34:10;100793.16;;;21.10;100.00
38718;BME280;24468;52.128;9.278;2022-08-01T09:36:46;100798.00;;;21.92;100.00
38718;BME280;24468;52.128;9.278;2022-08-01T09:39:16;100791.63;;;21.50;100.00
38718;BME280;24468;52.128;9.278;2022-08-01T09:41:42;100801.69;;;21.28;100.00
38718;BME280;24468;52.128;9.278;2022-08-01T09:44:08;100795.69;;;21.35;100.00
38718;BME280;24468;52.128;9.278;2022-08-01T09:46:34;100817.94;;;21.20;100.00
38718;BME280;24468;52.128;9.278;2022-08-01T09:49:03;100807.41;;;20.93;100.00
38718;BME280;24468;52.128;9.278;2022-08-01T09:51:35;100810.16;;;20.93;100.00
38718;BME280;24468;52.128;9.278;2022-08-01T09:54:02;100806.16;;;20.97;100.00
38718;BME280;24468;52.128;9.278;2022-08-01T09:56:40;100795.31;;;20.96;100.00
38718;BME280;24468;52.128;9.278;2022-08-01T09:59:11;100805.81;;;21.55;100.00
38718;BME280;24468;52.128;9.278;2022-08-01T10:01:48;100805.56;;;21.79;100.00
38718;BME280;24468;52.128;9.278;2022-08-01T10:04:21;100804.44;;;22.03;100.00
38718;BME280;24468;52.128;9.278;2022-08-01T10:06:50;100804.19;;;21.31;100.00
38718;BME280;24468;52.128;9.278;2022-08-01T10:09:31;100819.66;;;21.86;100.00
38718;BME280;24468;52.128;9.278;2022-08-01T10:11:59;100806.47;;;21.59;100.00
38718;BME280;24468;52.128;9.278;2022-08-01T10:14:26;100811.16;;;21.89;100.00
38718;BME280;24468;52.128;9.278;2022-08-01T10:16:53;100807.31;;;22.22;100.00
38718;BME280;24468;52.128;9.278;2022-08-01T10:19:26;100804.28;;;22.96;100.00
38718;BME280;24468;52.128;9.278;2022-08-01T10:21:54;100791.72;;;23.52;100.00
38718;BME280;24468;52.128;9.278;2022-08-01T10:24:21;100807.19;;;22.03;100.00
38718;BME280;24468;52.128;9.278;2022-08-01T10:27:08;100806.47;;;21.59;100.00
38718;BME280;24468;52.128;9.278;2022-08-01T10:29:43;100809.59;;;21.54;100.00
38718;BME280;24468;52.128;9.278;2022-08-01T10:32:11;100811.47;;;21.53;100.00
38718;BME280;24468;52.128;9.278;2022-08-01T10:34:38;100808.13;;;21.92;100.00
38718;BME280;24468;52.128;9.278;2022-08-01T10:37:04;100813.06;;;21.98;100.00
38718;BME280;24468;52.128;9.278;2022-08-01T10:39:32;100812.63;;;22.45;100.00
38718;BME280;24468;52.128;9.278;2022-08-01T10:41:58;100811.66;;;22.04;100.00
38718;BME280;24468;52.128;9.278;2022-08-01T10:44:27;100808.81;;;21.84;100.00
38718;BME280;24468;52.128;9.278;2022-08-01T10:47:02;100806.84;;;21.96;100.00
38718;BME280;24468;52.128;9.278;2022-08-01T10:49:31;100802.03;;;22.80;100.00
38718;BME280;24468;52.128;9.278;2022-08-01T10:52:00;100799.25;;;23.21;100.00
38718;BME280;24468;52.128;9.278;2022-08-01T10:54:26;100791.53;;;23.05;100.00
38718;BME280;24468;52.128;9.278;2022-08-01T10:56:52;100816.28;;;22.55;100.00
38718;BME280;24468;52.128;9.278;2022-08-01T10:59:28;100803.81;;;22.51;100.00
38718;BME280;24468;52.128;9.278;2022-08-01T11:02:00;100800.84;;;22.73;100.00
38718;BME280;24468;52.128;9.278;2022-08-01T11:04:55;100811.22;;;22.19;100.00
38718;BME280;24468;52.128;9.278;2022-08-01T11:07:32;100818.16;;;22.24;100.00
38718;BME280;24468;52.128;9.278;2022-08-01T11:10:41;100817.84;;;21.75;100.00
38718;BME280;24468;52.128;9.278;2022-08-01T11:13:09;100821.44;;;21.96;100.00
38718;BME280;24468;52.128;9.278;2022-08-01T11:15:40;100818.69;;;22.17;100.00
38718;BME280;24468;52.128;9.278;2022-08-01T11:21:01;100811.19;;;22.50;100.00
38718;BME280;24468;52.128;9.278;2022-08-01T11:23:29;100825.94;;;21.97;100.00
38718;BME280;24468;52.128;9.278;2022-08-01T11:28:22;100814.19;;;22.78;100.00
38718;BME280;24468;52.128;9.278;2022-08-01T11:31:03;100816.34;;;23.34;100.00
38718;BME280;24468;52.128;9.278;2022-08-01T11:41:33;100826.09;;;22.48;100.00
38718;BME280;24468;52.128;9.278;2022-08-01T11:44:09;100832.50;;;22.58;100.00
38718;BME280;24468;52.128;9.278;2022-08-01T11:52:27;100826.03;;;22.69;100.00
38718;BME280;24468;52.128;9.278;2022-08-01T11:57:29;100822.72;;;22.75;100.00
38718;BME280;24468;52.128;9.278;2022-08-01T12:00:14;100824.66;;;22.94;100.00
38718;BME280;24468;52.128;9.278;2022-08-01T12:02:40;100818.78;;;23.66;100.00
38718;BME280;24468;52.128;9.278;2022-08-01T12:07:35;100823.31;;;22.78;100.00
38718;BME280;24468;52.128;9.278;2022-08-01T12:10:14;100823.72;;;23.24;100.00
38718;BME280;24468;52.128;9.278;2022-08-01T12:13:06;100819.94;;;23.05;100.00
38718;BME280;24468;52.128;9.278;2022-08-01T12:15:37;100829.38;;;23.61;100.00
38718;BME280;24468;52.128;9.278;2022-08-01T12:18:06;100817.06;;;23.65;100.00
38718;BME280;24468;52.128;9.278;2022-08-01T12:20:39;100819.94;;;23.64;100.00
38718;BME280;24468;52.128;9.278;2022-08-01T12:23:11;100825.63;;;23.23;100.00
38718;BME280;24468;52.128;9.278;2022-08-01T12:25:38;100826.53;;;22.93;100.00
38718;BME280;24468;52.128;9.278;2022-08-01T12:28:11;100828.56;;;22.51;100.00
38718;BME280;24468;52.128;9.278;2022-08-01T12:30:40;100828.09;;;22.76;100.00
38718;BME280;24468;52.128;9.278;2022-08-01T12:33:08;100832.34;;;22.90;100.00
38718;BME280;24468;52.128;9.278;2022-08-01T12:35:37;100827.63;;;23.31;100.00
38718;BME280;24468;52.128;9.278;2022-08-01T12:38:18;100822.59;;;23.85;100.00
38718;BME280;24468;52.128;9.278;2022-08-01T12:40:46;100830.81;;;23.56;100.00
38718;BME280;24468;52.128;9.278;2022-08-01T12:43:18;100829.53;;;23.40;100.00
38718;BME280;24468;52.128;9.278;2022-08-01T12:45:47;100836.53;;;22.84;100.00
38718;BME280;24468;52.128;9.278;2022-08-01T12:48:16;100835.88;;;23.31;100.00
38718;BME280;24468;52.128;9.278;2022-08-01T12:50:48;100843.91;;;22.94;100.00
38718;BME280;24468;52.128;9.278;2022-08-01T12:53:16;100834.41;;;23.17;100.00
38718;BME280;24468;52.128;9.278;2022-08-01T12:55:48;100825.63;;;23.62;100.00
38718;BME280;24468;52.128;9.278;2022-08-01T12:58:16;100835.88;;;23.12;100.00
38718;BME280;24468;52.128;9.278;2022-08-01T13:00:45;100831.41;;;23.49;100.00
38718;BME280;24468;52.128;9.278;2022-08-01T13:03:19;100826.63;;;23.51;100.00
38718;BME280;24468;52.128;9.278;2022-08-01T13:05:53;100837.78;;;23.21;100.00
38718;BME280;24468;52.128;9.278;2022-08-01T13:10:49;100841.16;;;22.94;100.00
38718;BME280;24468;52.128;9.278;2022-08-01T13:13:18;100841.41;;;22.71;100.00
38718;BME280;24468;52.128;9.278;2022-08-01T13:15:45;100842.56;;;23.19;100.00
38718;BME280;24468;52.128;9.278;2022-08-01T13:18:31;100832.72;;;23.26;100.00
38718;BME280;24468;52.128;9.278;2022-08-01T13:21:13;100840.81;;;23.18;100.00
38718;BME280;24468;52.128;9.278;2022-08-01T13:23:59;100841.59;;;23.59;100.00
38718;BME280;24468;52.128;9.278;2022-08-01T13:26:46;100834.81;;;24.29;100.00